sensor_id;sensor_type;location;lat;lon;timestamp;P1;durP1;ratioP1;P2;durP2;ratioP2
20910;SDS011;10615;42.702;23.314;2024-03-06T00:00:40;19.50;;;13.07;;
20910;SDS011;10615;42.702;23.314;2024-03-06T00:01:41;18.05;;;11.70;;
20910;SDS011;10615;42.702;23.314;2024-03-06T00:02:42;19.08;;;12.68;;
20910;SDS011;10615;42.702;23.314;2024-03-06T00:03:43;20.42;;;12.63;;
20910;SDS011;10615;42.702;23.314;2024-03-06T00:04:43;19.40;;;12.50;;
20910;SDS011;10615;42.702;23.314;2024-03-06T00:05:44;19.08;;;12.45;;
20910;SDS011;10615;42.702;23.314;2024-03-06T00:06:45;19.73;;;12.82;;
20910;SDS011;10615;42.702;23.314;2024-03-06T00:07:46;20.85;;;12.93;;
20910;SDS011;10615;42.702;23.314;2024-03-06T00:08:47;24.50;;;13.35;;
20910;SDS011;10615;42.702;23.314;2024-03-06T00:09:47;22.58;;;12.98;;
20910;SDS011;10615;42.702;23.314;2024-03-06T00:10:48;20.90;;;13.38;;
20910;SDS011;10615;42.702;23.314;2024-03-06T00:11:49;17.20;;;12.40;;
20910;SDS011;10615;42.702;23.314;2024-03-06T00:12:52;21.17;;;13.25;;
20910;SDS011;10615;42.702;23.314;2024-03-06T00:13:53;20.08;;;12.38;;
20910;SDS011;10615;42.702;23.314;2024-03-06T00:14:53;20.52;;;12.60;;
20910;SDS011;10615;42.702;23.314;2024-03-06T00:15:54;19.48;;;13.63;;
20910;SDS011;10615;42.702;23.314;2024-03-06T00:16:55;24.02;;;13.45;;
20910;SDS011;10615;42.702;23.314;2024-03-06T00:17:56;25.52;;;14.18;;
20910;SDS011;10615;42.702;23.314;2024-03-06T00:18:58;25.67;;;14.77;;
20910;SDS011;10615;42.702;23.314;2024-03-06T00:19:59;25.83;;;14.90;;
20910;SDS011;10615;42.702;23.314;2024-03-06T00:21:00;23.70;;;14.65;;
20910;SDS011;10615;42.702;23.314;2024-03-06T00:22:01;21.10;;;14.05;;
20910;SDS011;10615;42.702;23.314;2024-03-06T00:23:02;22.23;;;14.48;;
20910;SDS011;10615;42.702;23.314;2024-03-06T00:24:03;22.35;;;13.90;;
20910;SDS011;10615;42.702;23.314;2024-03-06T00:25:04;22.08;;;14.20;;
20910;SDS011;10615;42.702;23.314;2024-03-06T00:26:05;23.23;;;12.85;;
20910;SDS011;10615;42.702;23.314;2024-03-06T00:27:06;20.33;;;13.13;;
20910;SDS011;10615;42.702;23.314;2024-03-06T00:28:07;20.55;;;13.70;;
20910;SDS011;10615;42.702;23.314;2024-03-06T00:29:08;19.60;;;13.55;;
20910;SDS011;10615;42.702;23.314;2024-03-06T00:30:09;20.63;;;13.77;;
20910;SDS011;10615;42.702;23.314;2024-03-06T00:31:10;21.92;;;13.95;;
20910;SDS011;10615;42.702;23.314;2024-03-06T00:32:11;21.25;;;13.55;;
20910;SDS011;10615;42.702;23.314;2024-03-06T00:33:12;22.50;;;13.38;;
20910;SDS011;10615;42.702;23.314;2024-03-06T00:34:13;18.30;;;12.88;;
20910;SDS011;10615;42.702;23.314;2024-03-06T00:35:13;23.15;;;14.02;;
20910;SDS011;10615;42.702;23.314;2024-03-06T00:36:14;20.45;;;13.07;;
20910;SDS011;10615;42.702;23.314;2024-03-06T00:37:15;20.83;;;13.48;;
20910;SDS011;10615;42.702;23.314;2024-03-06T00:38:15;22.58;;;13.73;;
20910;SDS011;10615;42.702;23.314;2024-03-06T00:39:16;24.55;;;14.27;;
20910;SDS011;10615;42.702;23.314;2024-03-06T00:40:17;21.13;;;12.90;;
20910;SDS011;10615;42.702;23.314;2024-03-06T00:41:18;19.83;;;13.43;;
20910;SDS011;10615;42.702;23.314;2024-03-06T00:42:19;20.48;;;13.20;;
20910;SDS011;10615;42.702;23.314;2024-03-06T00:43:20;21.35;;;13.93;;
20910;SDS011;10615;42.702;23.314;2024-03-06T00:44:20;22.73;;;14.02;;
20910;SDS011;10615;42.702;23.314;2024-03-06T00:45:21;20.55;;;13.75;;
20910;SDS011;10615;42.702;23.314;2024-03-06T00:46:22;21.45;;;13.85;;
20910;SDS011;10615;42.702;23.314;2024-03-06T00:47:23;22.98;;;14.25;;
20910;SDS011;10615;42.702;23.314;2024-03-06T00:48:24;22.60;;;14.27;;
20910;SDS011;10615;42.702;23.314;2024-03-06T00:49:24;21.58;;;14.45;;
20910;SDS011;10615;42.702;23.314;2024-03-06T00:50:26;26.38;;;15.32;;
20910;SDS011;10615;42.702;23.314;2024-03-06T00:51:26;20.63;;;14.20;;
20910;SDS011;10615;42.702;23.314;2024-03-06T00:52:27;18.77;;;14.07;;
20910;SDS011;10615;42.702;23.314;2024-03-06T00:53:28;22.95;;;14.88;;
20910;SDS011;10615;42.702;23.314;2024-03-06T00:54:28;24.40;;;14.68;;
20910;SDS011;10615;42.702;23.314;2024-03-06T00:55:29;23.23;;;14.70;;
20910;SDS011;10615;42.702;23.314;2024-03-06T00:56:30;21.58;;;14.68;;
20910;SDS011;10615;42.702;23.314;2024-03-06T00:57:31;19.98;;;14.60;;
20910;SDS011;10615;42.702;23.314;2024-03-06T00:58:32;23.63;;;15.40;;
20910;SDS011;10615;42.702;23.314;2024-03-06T00:59:33;25.42;;;15.10;;
20910;SDS011;10615;42.702;23.314;2024-03-06T01:00:34;23.20;;;15.57;;
20910;SDS011;10615;42.702;23.314;2024-03-06T01:01:34;24.77;;;15.27;;
20910;SDS011;10615;42.702;23.314;2024-03-06T01:02:36;25.17;;;15.35;;
20910;SDS011;10615;42.702;23.314;2024-03-06T01:03:37;23.95;;;14.80;;
20910;SDS011;10615;42.702;23.314;2024-03-06T01:04:38;21.05;;;14.70;;
20910;SDS011;10615;42.702;23.314;2024-03-06T01:05:40;22.35;;;14.75;;
20910;SDS011;10615;42.702;23.314;2024-03-06T01:06:40;22.88;;;14.30;;
20910;SDS011;10615;42.702;23.314;2024-03-06T01:07:41;21.90;;;14.70;;
20910;SDS011;10615;42.702;23.314;2024-03-06T01:08:42;22.75;;;14.75;;
20910;SDS011;10615;42.702;23.314;2024-03-06T01:09:43;22.40;;;15.13;;
20910;SDS011;10615;42.702;23.314;2024-03-06T01:10:44;25.80;;;15.20;;
20910;SDS011;10615;42.702;23.314;2024-03-06T01:11:45;24.38;;;15.43;;
20910;SDS011;10615;42.702;23.314;2024-03-06T01:12:48;21.25;;;14.20;;
20910;SDS011;10615;42.702;23.314;2024-03-06T01:13:48;22.48;;;14.85;;
20910;SDS011;10615;42.702;23.314;2024-03-06T01:14:49;23.92;;;15.63;;
20910;SDS011;10615;42.702;23.314;2024-03-06T01:15:50;20.75;;;14.32;;
20910;SDS011;10615;42.702;23.314;2024-03-06T01:16:51;22.20;;;15.00;;
20910;SDS011;10615;42.702;23.314;2024-03-06T01:17:52;24.73;;;15.63;;
20910;SDS011;10615;42.702;23.314;2024-03-06T01:18:53;22.00;;;15.00;;
20910;SDS011;10615;42.702;23.314;2024-03-06T01:19:53;23.95;;;15.40;;
20910;SDS011;10615;42.702;23.314;2024-03-06T01:20:54;24.95;;;16.42;;
20910;SDS011;10615;42.702;23.314;2024-03-06T01:21:55;22.38;;;14.30;;
20910;SDS011;10615;42.702;23.314;2024-03-06T01:22:56;23.20;;;15.45;;
20910;SDS011;10615;42.702;23.314;2024-03-06T01:23:56;24.48;;;15.45;;
20910;SDS011;10615;42.702;23.314;2024-03-06T01:24:57;24.70;;;15.05;;
20910;SDS011;10615;42.702;23.314;2024-03-06T01:25:59;22.73;;;15.32;;
20910;SDS011;10615;42.702;23.314;2024-03-06T01:27:00;22.17;;;14.55;;
20910;SDS011;10615;42.702;23.314;2024-03-06T01:28:02;20.38;;;14.60;;
20910;SDS011;10615;42.702;23.314;2024-03-06T01:29:03;22.98;;;14.98;;
20910;SDS011;10615;42.702;23.314;2024-03-06T01:30:04;23.17;;;14.73;;
20910;SDS011;10615;42.702;23.314;2024-03-06T01:31:05;21.75;;;14.25;;
20910;SDS011;10615;42.702;23.314;2024-03-06T01:32:06;22.48;;;14.45;;
20910;SDS011;10615;42.702;23.314;2024-03-06T01:33:07;22.08;;;14.00;;
20910;SDS011;10615;42.702;23.314;2024-03-06T01:34:08;20.65;;;13.77;;
20910;SDS011;10615;42.702;23.314;2024-03-06T01:35:08;20.48;;;13.65;;
20910;SDS011;10615;42.702;23.314;2024-03-06T01:36:09;20.17;;;13.57;;
20910;SDS011;10615;42.702;23.314;2024-03-06T01:37:10;21.27;;;14.05;;
20910;SDS011;10615;42.702;23.314;2024-03-06T01:38:11;22.33;;;14.45;;
20910;SDS011;10615;42.702;23.314;2024-03-06T01:39:12;20.70;;;14.52;;
20910;SDS011;10615;42.702;23.314;2024-03-06T01:40:12;21.60;;;13.88;;
20910;SDS011;10615;42.702;23.314;2024-03-06T01:41:14;22.92;;;14.38;;
20910;SDS011;10615;42.702;23.314;2024-03-06T01:42:16;22.30;;;14.30;;
20910;SDS011;10615;42.702;23.314;2024-03-06T01:43:23;20.10;;;13.88;;
20910;SDS011;10615;42.702;23.314;2024-03-06T01:44:25;21.70;;;13.73;;
20910;SDS011;10615;42.702;23.314;2024-03-06T01:45:26;22.95;;;14.38;;
20910;SDS011;10615;42.702;23.314;2024-03-06T01:46:27;21.15;;;13.73;;
20910;SDS011;10615;42.702;23.314;2024-03-06T01:47:28;24.25;;;14.73;;
20910;SDS011;10615;42.702;23.314;2024-03-06T01:48:28;23.63;;;14.43;;
20910;SDS011;10615;42.702;23.314;2024-03-06T01:49:31;25.80;;;15.45;;
20910;SDS011;10615;42.702;23.314;2024-03-06T01:50:32;21.60;;;14.80;;
20910;SDS011;10615;42.702;23.314;2024-03-06T01:51:33;25.88;;;15.15;;
20910;SDS011;10615;42.702;23.314;2024-03-06T01:52:35;23.67;;;14.43;;
20910;SDS011;10615;42.702;23.314;2024-03-06T01:53:37;23.85;;;15.00;;
20910;SDS011;10615;42.702;23.314;2024-03-06T01:54:38;19.80;;;13.77;;
20910;SDS011;10615;42.702;23.314;2024-03-06T01:55:39;22.17;;;15.15;;
20910;SDS011;10615;42.702;23.314;2024-03-06T01:56:44;24.95;;;15.02;;
20910;SDS011;10615;42.702;23.314;2024-03-06T01:57:45;22.23;;;14.52;;
20910;SDS011;10615;42.702;23.314;2024-03-06T01:58:46;20.13;;;13.82;;
20910;SDS011;10615;42.702;23.314;2024-03-06T01:59:47;22.10;;;14.48;;
20910;SDS011;10615;42.702;23.314;2024-03-06T02:00:49;22.27;;;14.45;;
20910;SDS011;10615;42.702;23.314;2024-03-06T02:01:52;24.70;;;15.07;;
20910;SDS011;10615;42.702;23.314;2024-03-06T02:02:54;22.15;;;15.00;;
20910;SDS011;10615;42.702;23.314;2024-03-06T02:03:55;21.75;;;13.93;;
20910;SDS011;10615;42.702;23.314;2024-03-06T02:04:56;21.20;;;14.35;;
20910;SDS011;10615;42.702;23.314;2024-03-06T02:06:02;20.88;;;14.15;;
20910;SDS011;10615;42.702;23.314;2024-03-06T02:07:07;23.40;;;14.40;;
20910;SDS011;10615;42.702;23.314;2024-03-06T02:08:10;22.35;;;14.57;;
20910;SDS011;10615;42.702;23.314;2024-03-06T02:09:12;22.02;;;14.50;;
20910;SDS011;10615;42.702;23.314;2024-03-06T02:10:16;22.73;;;14.85;;
20910;SDS011;10615;42.702;23.314;2024-03-06T02:11:17;21.67;;;14.38;;
20910;SDS011;10615;42.702;23.314;2024-03-06T02:12:18;22.15;;;14.88;;
20910;SDS011;10615;42.702;23.314;2024-03-06T02:13:19;20.55;;;14.00;;
20910;SDS011;10615;42.702;23.314;2024-03-06T02:14:21;22.80;;;14.30;;
20910;SDS011;10615;42.702;23.314;2024-03-06T02:15:21;21.67;;;14.50;;
20910;SDS011;10615;42.702;23.314;2024-03-06T02:16:22;22.23;;;13.65;;
20910;SDS011;10615;42.702;23.314;2024-03-06T02:17:23;22.10;;;14.35;;
20910;SDS011;10615;42.702;23.314;2024-03-06T02:18:25;22.70;;;13.70;;
20910;SDS011;10615;42.702;23.314;2024-03-06T02:19:39;20.67;;;13.82;;
20910;SDS011;10615;42.702;23.314;2024-03-06T02:20:40;24.90;;;14.85;;
20910;SDS011;10615;42.702;23.314;2024-03-06T02:21:41;23.33;;;15.07;;
20910;SDS011;10615;42.702;23.314;2024-03-06T02:22:42;22.13;;;14.32;;
20910;SDS011;10615;42.702;23.314;2024-03-06T02:23:42;22.83;;;14.65;;
20910;SDS011;10615;42.702;23.314;2024-03-06T02:24:44;23.58;;;15.15;;
20910;SDS011;10615;42.702;23.314;2024-03-06T02:25:50;21.77;;;14.77;;
20910;SDS011;10615;42.702;23.314;2024-03-06T02:26:50;23.45;;;15.02;;
20910;SDS011;10615;42.702;23.314;2024-03-06T02:27:51;26.23;;;15.50;;
20910;SDS011;10615;42.702;23.314;2024-03-06T02:28:53;22.83;;;15.55;;
20910;SDS011;10615;42.702;23.314;2024-03-06T02:29:54;26.25;;;16.00;;
20910;SDS011;10615;42.702;23.314;2024-03-06T02:30:55;24.88;;;15.82;;
20910;SDS011;10615;42.702;23.314;2024-03-06T02:31:56;22.90;;;14.93;;
20910;SDS011;10615;42.702;23.314;2024-03-06T02:32:58;25.95;;;15.93;;
20910;SDS011;10615;42.702;23.314;2024-03-06T02:33:58;30.20;;;16.58;;
20910;SDS011;10615;42.702;23.314;2024-03-06T02:35:00;29.30;;;17.33;;
20910;SDS011;10615;42.702;23.314;2024-03-06T02:36:02;26.08;;;16.60;;
20910;SDS011;10615;42.702;23.314;2024-03-06T02:37:05;25.08;;;16.33;;
20910;SDS011;10615;42.702;23.314;2024-03-06T02:38:06;27.98;;;16.48;;
20910;SDS011;10615;42.702;23.314;2024-03-06T02:39:07;23.80;;;16.40;;
20910;SDS011;10615;42.702;23.314;2024-03-06T02:40:08;26.80;;;16.08;;
20910;SDS011;10615;42.702;23.314;2024-03-06T02:41:10;28.70;;;16.65;;
20910;SDS011;10615;42.702;23.314;2024-03-06T02:42:11;25.88;;;16.58;;
20910;SDS011;10615;42.702;23.314;2024-03-06T02:43:12;27.48;;;16.02;;
20910;SDS011;10615;42.702;23.314;2024-03-06T02:44:12;25.38;;;15.75;;
20910;SDS011;10615;42.702;23.314;2024-03-06T02:45:13;26.20;;;16.40;;
20910;SDS011;10615;42.702;23.314;2024-03-06T02:46:14;30.42;;;17.75;;
20910;SDS011;10615;42.702;23.314;2024-03-06T02:47:15;24.92;;;15.82;;
20910;SDS011;10615;42.702;23.314;2024-03-06T02:48:15;25.92;;;15.13;;
20910;SDS011;10615;42.702;23.314;2024-03-06T02:49:16;23.42;;;16.25;;
20910;SDS011;10615;42.702;23.314;2024-03-06T02:50:18;25.70;;;16.10;;
20910;SDS011;10615;42.702;23.314;2024-03-06T02:51:21;24.13;;;15.18;;
20910;SDS011;10615;42.702;23.314;2024-03-06T02:52:22;25.42;;;15.70;;
20910;SDS011;10615;42.702;23.314;2024-03-06T02:53:22;23.35;;;15.80;;
20910;SDS011;10615;42.702;23.314;2024-03-06T02:54:23;23.92;;;15.18;;
20910;SDS011;10615;42.702;23.314;2024-03-06T02:55:25;23.98;;;15.55;;
20910;SDS011;10615;42.702;23.314;2024-03-06T02:56:26;25.35;;;15.30;;
20910;SDS011;10615;42.702;23.314;2024-03-06T02:57:27;23.55;;;15.30;;
20910;SDS011;10615;42.702;23.314;2024-03-06T02:58:30;23.98;;;15.30;;
20910;SDS011;10615;42.702;23.314;2024-03-06T02:59:31;25.73;;;15.55;;
20910;SDS011;10615;42.702;23.314;2024-03-06T03:00:32;22.50;;;14.35;;
20910;SDS011;10615;42.702;23.314;2024-03-06T03:01:33;22.95;;;15.23;;
20910;SDS011;10615;42.702;23.314;2024-03-06T03:02:34;25.25;;;14.95;;
20910;SDS011;10615;42.702;23.314;2024-03-06T03:03:34;25.08;;;14.60;;
20910;SDS011;10615;42.702;23.314;2024-03-06T03:04:36;21.77;;;14.13;;
20910;SDS011;10615;42.702;23.314;2024-03-06T03:05:36;25.83;;;14.75;;
20910;SDS011;10615;42.702;23.314;2024-03-06T03:06:38;24.13;;;14.70;;
20910;SDS011;10615;42.702;23.314;2024-03-06T03:07:38;24.42;;;15.23;;
20910;SDS011;10615;42.702;23.314;2024-03-06T03:08:39;23.02;;;15.15;;
20910;SDS011;10615;42.702;23.314;2024-03-06T03:09:40;22.10;;;14.52;;
20910;SDS011;10615;42.702;23.314;2024-03-06T03:10:40;22.90;;;14.32;;
20910;SDS011;10615;42.702;23.314;2024-03-06T03:11:42;23.17;;;15.00;;
20910;SDS011;10615;42.702;23.314;2024-03-06T03:12:44;24.05;;;14.30;;
20910;SDS011;10615;42.702;23.314;2024-03-06T03:13:45;24.38;;;14.40;;
20910;SDS011;10615;42.702;23.314;2024-03-06T03:14:46;23.83;;;15.05;;
20910;SDS011;10615;42.702;23.314;2024-03-06T03:15:46;26.08;;;15.27;;
20910;SDS011;10615;42.702;23.314;2024-03-06T03:16:48;25.35;;;15.77;;
20910;SDS011;10615;42.702;23.314;2024-03-06T03:17:48;22.25;;;15.00;;
20910;SDS011;10615;42.702;23.314;2024-03-06T03:18:49;24.08;;;14.60;;
20910;SDS011;10615;42.702;23.314;2024-03-06T03:19:50;22.63;;;14.00;;
20910;SDS011;10615;42.702;23.314;2024-03-06T03:20:51;26.40;;;14.93;;
20910;SDS011;10615;42.702;23.314;2024-03-06T03:21:51;24.52;;;14.82;;
20910;SDS011;10615;42.702;23.314;2024-03-06T03:22:52;24.27;;;15.13;;
20910;SDS011;10615;42.702;23.314;2024-03-06T03:23:53;22.90;;;14.77;;
20910;SDS011;10615;42.702;23.314;2024-03-06T03:24:54;24.00;;;14.98;;
20910;SDS011;10615;42.702;23.314;2024-03-06T03:25:54;23.42;;;15.43;;
20910;SDS011;10615;42.702;23.314;2024-03-06T03:26:55;23.65;;;13.95;;
20910;SDS011;10615;42.702;23.314;2024-03-06T03:27:56;24.73;;;15.57;;
20910;SDS011;10615;42.702;23.314;2024-03-06T03:28:56;23.75;;;15.02;;
20910;SDS011;10615;42.702;23.314;2024-03-06T03:29:57;22.38;;;14.00;;
20910;SDS011;10615;42.702;23.314;2024-03-06T03:30:58;26.90;;;15.40;;
20910;SDS011;10615;42.702;23.314;2024-03-06T03:31:59;24.95;;;14.68;;
20910;SDS011;10615;42.702;23.314;2024-03-06T03:33:00;24.75;;;15.15;;
20910;SDS011;10615;42.702;23.314;2024-03-06T03:34:00;23.52;;;14.80;;
20910;SDS011;10615;42.702;23.314;2024-03-06T03:35:01;23.35;;;13.88;;
20910;SDS011;10615;42.702;23.314;2024-03-06T03:36:04;23.33;;;15.27;;
20910;SDS011;10615;42.702;23.314;2024-03-06T03:37:08;25.58;;;15.07;;
20910;SDS011;10615;42.702;23.314;2024-03-06T03:38:09;23.98;;;15.55;;
20910;SDS011;10615;42.702;23.314;2024-03-06T03:39:10;33.95;;;17.63;;
20910;SDS011;10615;42.702;23.314;2024-03-06T03:40:17;23.92;;;15.40;;
20910;SDS011;10615;42.702;23.314;2024-03-06T03:41:18;24.83;;;15.55;;
20910;SDS011;10615;42.702;23.314;2024-03-06T03:42:19;25.90;;;15.48;;
20910;SDS011;10615;42.702;23.314;2024-03-06T03:43:20;23.45;;;15.27;;
20910;SDS011;10615;42.702;23.314;2024-03-06T03:44:21;25.40;;;15.70;;
20910;SDS011;10615;42.702;23.314;2024-03-06T03:45:21;26.23;;;16.20;;
20910;SDS011;10615;42.702;23.314;2024-03-06T03:46:22;28.17;;;16.23;;
20910;SDS011;10615;42.702;23.314;2024-03-06T03:47:23;22.83;;;15.07;;
20910;SDS011;10615;42.702;23.314;2024-03-06T03:48:24;27.88;;;15.60;;
20910;SDS011;10615;42.702;23.314;2024-03-06T03:49:25;25.55;;;15.68;;
20910;SDS011;10615;42.702;23.314;2024-03-06T03:50:26;24.52;;;14.85;;
20910;SDS011;10615;42.702;23.314;2024-03-06T03:51:26;22.67;;;14.85;;
20910;SDS011;10615;42.702;23.314;2024-03-06T03:52:27;23.50;;;14.68;;
20910;SDS011;10615;42.702;23.314;2024-03-06T03:53:28;25.05;;;15.80;;
20910;SDS011;10615;42.702;23.314;2024-03-06T03:54:29;22.75;;;14.50;;
20910;SDS011;10615;42.702;23.314;2024-03-06T03:55:29;25.75;;;15.25;;
20910;SDS011;10615;42.702;23.314;2024-03-06T03:56:30;21.33;;;14.38;;
20910;SDS011;10615;42.702;23.314;2024-03-06T03:57:32;22.00;;;15.13;;
20910;SDS011;10615;42.702;23.314;2024-03-06T03:58:32;22.88;;;15.55;;
20910;SDS011;10615;42.702;23.314;2024-03-06T03:59:33;25.33;;;15.45;;
20910;SDS011;10615;42.702;23.314;2024-03-06T04:00:34;27.63;;;15.88;;
20910;SDS011;10615;42.702;23.314;2024-03-06T04:01:35;24.58;;;16.05;;
20910;SDS011;10615;42.702;23.314;2024-03-06T04:02:36;25.17;;;15.05;;
20910;SDS011;10615;42.702;23.314;2024-03-06T04:03:37;25.45;;;14.82;;
20910;SDS011;10615;42.702;23.314;2024-03-06T04:04:38;23.70;;;15.48;;
20910;SDS011;10615;42.702;23.314;2024-03-06T04:05:39;25.50;;;15.82;;
20910;SDS011;10615;42.702;23.314;2024-03-06T04:06:40;26.55;;;15.27;;
20910;SDS011;10615;42.702;23.314;2024-03-06T04:07:40;23.83;;;15.20;;
20910;SDS011;10615;42.702;23.314;2024-03-06T04:08:41;24.45;;;15.25;;
20910;SDS011;10615;42.702;23.314;2024-03-06T04:09:42;23.38;;;14.70;;
20910;SDS011;10615;42.702;23.314;2024-03-06T04:10:43;23.77;;;13.93;;
20910;SDS011;10615;42.702;23.314;2024-03-06T04:11:46;22.65;;;14.60;;
20910;SDS011;10615;42.702;23.314;2024-03-06T04:12:47;23.05;;;14.20;;
20910;SDS011;10615;42.702;23.314;2024-03-06T04:13:48;24.00;;;14.25;;
20910;SDS011;10615;42.702;23.314;2024-03-06T04:14:49;24.88;;;15.05;;
20910;SDS011;10615;42.702;23.314;2024-03-06T04:15:50;22.38;;;14.65;;
20910;SDS011;10615;42.702;23.314;2024-03-06T04:16:51;23.00;;;15.55;;
20910;SDS011;10615;42.702;23.314;2024-03-06T04:17:51;25.67;;;14.95;;
20910;SDS011;10615;42.702;23.314;2024-03-06T04:18:52;24.80;;;15.73;;
20910;SDS011;10615;42.702;23.314;2024-03-06T04:19:53;27.70;;;15.57;;
20910;SDS011;10615;42.702;23.314;2024-03-06T04:20:55;22.75;;;15.07;;
20910;SDS011;10615;42.702;23.314;2024-03-06T04:21:56;27.90;;;15.82;;
20910;SDS011;10615;42.702;23.314;2024-03-06T04:22:56;26.67;;;15.18;;
20910;SDS011;10615;42.702;23.314;2024-03-06T04:25:17;24.75;;;15.43;;
20910;SDS011;10615;42.702;23.314;2024-03-06T04:26:18;24.00;;;14.38;;
20910;SDS011;10615;42.702;23.314;2024-03-06T04:27:18;25.63;;;15.57;;
20910;SDS011;10615;42.702;23.314;2024-03-06T04:28:19;23.85;;;15.45;;
20910;SDS011;10615;42.702;23.314;2024-03-06T04:29:20;27.50;;;15.85;;
20910;SDS011;10615;42.702;23.314;2024-03-06T04:30:21;22.45;;;14.90;;
20910;SDS011;10615;42.702;23.314;2024-03-06T04:31:21;24.50;;;15.32;;
20910;SDS011;10615;42.702;23.314;2024-03-06T04:32:22;24.38;;;15.82;;
20910;SDS011;10615;42.702;23.314;2024-03-06T04:33:23;22.90;;;14.88;;
20910;SDS011;10615;42.702;23.314;2024-03-06T04:34:24;24.13;;;15.10;;
20910;SDS011;10615;42.702;23.314;2024-03-06T04:35:24;25.65;;;15.98;;
20910;SDS011;10615;42.702;23.314;2024-03-06T04:36:25;26.70;;;15.15;;
20910;SDS011;10615;42.702;23.314;2024-03-06T04:37:26;24.83;;;15.15;;
20910;SDS011;10615;42.702;23.314;2024-03-06T04:38:27;28.25;;;15.85;;
20910;SDS011;10615;42.702;23.314;2024-03-06T04:39:29;25.55;;;14.60;;
20910;SDS011;10615;42.702;23.314;2024-03-06T04:40:29;23.90;;;15.25;;
20910;SDS011;10615;42.702;23.314;2024-03-06T04:41:30;26.23;;;15.00;;
20910;SDS011;10615;42.702;23.314;2024-03-06T04:42:31;23.17;;;15.13;;
20910;SDS011;10615;42.702;23.314;2024-03-06T04:43:31;22.02;;;14.60;;
20910;SDS011;10615;42.702;23.314;2024-03-06T04:44:33;27.75;;;15.95;;
20910;SDS011;10615;42.702;23.314;2024-03-06T04:45:34;23.20;;;15.48;;
20910;SDS011;10615;42.702;23.314;2024-03-06T04:46:35;29.65;;;15.50;;
20910;SDS011;10615;42.702;23.314;2024-03-06T04:47:36;26.38;;;15.85;;
20910;SDS011;10615;42.702;23.314;2024-03-06T04:48:36;26.58;;;15.60;;
20910;SDS011;10615;42.702;23.314;2024-03-06T04:49:37;26.45;;;15.38;;
20910;SDS011;10615;42.702;23.314;2024-03-06T04:50:38;30.67;;;16.42;;
20910;SDS011;10615;42.702;23.314;2024-03-06T04:51:39;25.70;;;15.88;;
20910;SDS011;10615;42.702;23.314;2024-03-06T04:52:40;26.33;;;15.98;;
20910;SDS011;10615;42.702;23.314;2024-03-06T04:53:40;25.25;;;15.93;;
20910;SDS011;10615;42.702;23.314;2024-03-06T04:54:42;27.65;;;16.27;;
20910;SDS011;10615;42.702;23.314;2024-03-06T04:55:43;25.30;;;15.57;;
20910;SDS011;10615;42.702;23.314;2024-03-06T04:56:44;25.25;;;15.93;;
20910;SDS011;10615;42.702;23.314;2024-03-06T04:57:44;24.88;;;15.77;;
20910;SDS011;10615;42.702;23.314;2024-03-06T04:58:46;24.30;;;15.40;;
20910;SDS011;10615;42.702;23.314;2024-03-06T04:59:46;26.00;;;16.10;;
20910;SDS011;10615;42.702;23.314;2024-03-06T05:00:47;27.90;;;16.10;;
20910;SDS011;10615;42.702;23.314;2024-03-06T05:01:48;26.63;;;15.65;;
20910;SDS011;10615;42.702;23.314;2024-03-06T05:02:49;23.13;;;15.80;;
20910;SDS011;10615;42.702;23.314;2024-03-06T05:03:50;24.52;;;15.23;;
20910;SDS011;10615;42.702;23.314;2024-03-06T05:04:50;26.13;;;15.77;;
20910;SDS011;10615;42.702;23.314;2024-03-06T05:05:51;24.40;;;16.25;;
20910;SDS011;10615;42.702;23.314;2024-03-06T05:06:52;24.95;;;15.45;;
20910;SDS011;10615;42.702;23.314;2024-03-06T05:07:53;25.55;;;15.95;;
20910;SDS011;10615;42.702;23.314;2024-03-06T05:08:53;22.55;;;15.18;;
20910;SDS011;10615;42.702;23.314;2024-03-06T05:09:54;26.85;;;15.18;;
20910;SDS011;10615;42.702;23.314;2024-03-06T05:10:56;24.75;;;14.63;;
20910;SDS011;10615;42.702;23.314;2024-03-06T05:11:57;24.88;;;15.23;;
20910;SDS011;10615;42.702;23.314;2024-03-06T05:12:57;21.15;;;14.55;;
20910;SDS011;10615;42.702;23.314;2024-03-06T05:14:01;25.55;;;15.45;;
20910;SDS011;10615;42.702;23.314;2024-03-06T05:15:03;24.33;;;15.15;;
20910;SDS011;10615;42.702;23.314;2024-03-06T05:16:04;23.05;;;15.00;;
20910;SDS011;10615;42.702;23.314;2024-03-06T05:17:05;24.92;;;14.77;;
20910;SDS011;10615;42.702;23.314;2024-03-06T05:18:06;24.15;;;15.32;;
20910;SDS011;10615;42.702;23.314;2024-03-06T05:19:09;22.83;;;14.60;;
20910;SDS011;10615;42.702;23.314;2024-03-06T05:20:11;26.70;;;15.20;;
20910;SDS011;10615;42.702;23.314;2024-03-06T05:21:11;24.63;;;14.60;;
20910;SDS011;10615;42.702;23.314;2024-03-06T05:22:12;20.80;;;13.32;;
20910;SDS011;10615;42.702;23.314;2024-03-06T05:23:13;24.90;;;14.25;;
20910;SDS011;10615;42.702;23.314;2024-03-06T05:24:14;22.17;;;14.05;;
20910;SDS011;10615;42.702;23.314;2024-03-06T05:25:15;21.60;;;13.60;;
20910;SDS011;10615;42.702;23.314;2024-03-06T05:26:16;21.88;;;14.13;;
20910;SDS011;10615;42.702;23.314;2024-03-06T05:27:17;21.35;;;13.85;;
20910;SDS011;10615;42.702;23.314;2024-03-06T05:28:17;22.17;;;14.35;;
20910;SDS011;10615;42.702;23.314;2024-03-06T05:29:18;20.42;;;12.90;;
20910;SDS011;10615;42.702;23.314;2024-03-06T05:30:19;22.95;;;13.45;;
20910;SDS011;10615;42.702;23.314;2024-03-06T05:31:20;23.80;;;13.82;;
20910;SDS011;10615;42.702;23.314;2024-03-06T05:32:20;29.17;;;12.98;;
20910;SDS011;10615;42.702;23.314;2024-03-06T05:33:21;24.38;;;12.95;;
20910;SDS011;10615;42.702;23.314;2024-03-06T05:34:22;21.80;;;13.75;;
20910;SDS011;10615;42.702;23.314;2024-03-06T05:35:23;21.42;;;13.30;;
20910;SDS011;10615;42.702;23.314;2024-03-06T05:36:24;22.85;;;13.32;;
20910;SDS011;10615;42.702;23.314;2024-03-06T05:37:25;21.45;;;12.77;;
20910;SDS011;10615;42.702;23.314;2024-03-06T05:38:26;25.35;;;12.90;;
20910;SDS011;10615;42.702;23.314;2024-03-06T05:39:27;28.27;;;13.98;;
20910;SDS011;10615;42.702;23.314;2024-03-06T05:40:27;21.60;;;13.02;;
20910;SDS011;10615;42.702;23.314;2024-03-06T05:41:28;25.65;;;14.07;;
20910;SDS011;10615;42.702;23.314;2024-03-06T05:42:29;31.05;;;13.20;;
20910;SDS011;10615;42.702;23.314;2024-03-06T05:43:30;22.55;;;13.55;;
20910;SDS011;10615;42.702;23.314;2024-03-06T05:44:31;21.63;;;13.70;;
20910;SDS011;10615;42.702;23.314;2024-03-06T05:45:32;24.25;;;14.13;;
20910;SDS011;10615;42.702;23.314;2024-03-06T05:46:33;25.65;;;14.45;;
20910;SDS011;10615;42.702;23.314;2024-03-06T05:47:34;22.10;;;14.23;;
20910;SDS011;10615;42.702;23.314;2024-03-06T05:48:34;23.65;;;13.45;;
20910;SDS011;10615;42.702;23.314;2024-03-06T05:49:35;22.70;;;13.38;;
20910;SDS011;10615;42.702;23.314;2024-03-06T05:50:36;24.00;;;13.43;;
20910;SDS011;10615;42.702;23.314;2024-03-06T05:51:37;24.50;;;13.80;;
20910;SDS011;10615;42.702;23.314;2024-03-06T05:52:38;19.63;;;12.85;;
20910;SDS011;10615;42.702;23.314;2024-03-06T05:53:38;21.33;;;13.65;;